Redcar, United Kingdom
Current Conditions -  °F | °C
As of 7:50 AM on Saturday 25 Oct 2014 (Local Time) from EGNV Reporting Station
Few Clouds Few Clouds  
Wind Chill: 44°   Ceiling: Unl
Heat Index: 48°   Visibility: 6mi
Dew Point: 43°   Wind: 10mph
Humidity: 82%   Direction: 160°SSE
Pressure: 29.85"   Gusts: NA
Location:  54.6°N, 1.08°W
Report Text: EGNV 250650Z 16009KT 9999 FEW023 09/06 Q1011
Loading
Personal Weather Stations






























Interactive Weather Map
Tropical Storm Tracking
New forecast layout! Learn more

10-Day Weather Forecast

Advertisements
Track Severe Weather on mobile